createdAt,value
2022-10-21T00:01:36.380Z,22.20
2022-10-21T00:03:45.340Z,22.20
2022-10-21T00:05:52.925Z,22.30
2022-10-21T00:07:59.849Z,22.30
2022-10-21T00:10:07.852Z,22.30
2022-10-21T00:12:14.677Z,22.30
2022-10-21T00:14:21.447Z,22.40
2022-10-21T00:16:28.220Z,22.40
2022-10-21T00:18:35.862Z,22.40
2022-10-21T00:20:47.039Z,22.50
2022-10-21T00:22:53.793Z,22.50
2022-10-21T00:25:00.580Z,22.60
2022-10-21T00:27:07.694Z,22.60
2022-10-21T00:29:14.590Z,22.70
2022-10-21T00:31:21.769Z,22.70
2022-10-21T00:33:29.564Z,22.80
2022-10-21T00:35:37.617Z,22.80
2022-10-21T00:37:45.976Z,22.90
2022-10-21T00:39:54.077Z,23.00
2022-10-21T00:42:00.849Z,23.10
2022-10-21T00:44:10.078Z,23.20
2022-10-21T00:46:19.512Z,23.20
2022-10-21T00:48:32.276Z,23.30
2022-10-21T00:50:42.829Z,23.30
2022-10-21T00:52:51.452Z,23.40
2022-10-21T00:55:01.463Z,23.40
2022-10-21T00:57:09.251Z,23.50
2022-10-21T00:59:17.247Z,23.50
2022-10-21T01:01:25.141Z,23.60
2022-10-21T01:03:34.277Z,23.60
2022-10-21T01:05:42.369Z,23.70
2022-10-21T01:07:53.248Z,23.70
2022-10-21T01:10:00.072Z,23.80
2022-10-21T01:12:09.553Z,23.80
2022-10-21T01:14:55.500Z,23.90
2022-10-21T01:17:20.383Z,24.00
2022-10-21T01:20:11.351Z,24.00
2022-10-21T01:22:31.691Z,24.10
2022-10-21T01:25:06.374Z,24.20
2022-10-21T01:27:33.051Z,24.20
2022-10-21T01:30:18.894Z,24.30
2022-10-21T01:32:35.031Z,24.40
2022-10-21T01:34:47.696Z,24.50
2022-10-21T01:36:58.048Z,24.60
2022-10-21T01:39:16.134Z,24.60
2022-10-21T01:41:28.128Z,24.70
2022-10-21T01:43:42.227Z,24.70
2022-10-21T01:45:53.298Z,24.80
2022-10-21T01:48:05.648Z,24.80
2022-10-21T01:50:17.082Z,24.80
2022-10-21T01:52:23.651Z,24.80
2022-10-21T01:54:33.953Z,24.90
2022-10-21T01:56:42.315Z,25.00
2022-10-21T01:58:51.134Z,25.00
2022-10-21T02:01:00.337Z,25.10
2022-10-21T02:03:11.794Z,25.10
2022-10-21T02:05:23.169Z,25.20
2022-10-21T02:07:30.040Z,25.20
2022-10-21T02:09:37.078Z,25.30
2022-10-21T02:11:46.801Z,25.30
2022-10-21T02:14:00.249Z,25.30
2022-10-21T02:16:11.572Z,25.30
2022-10-21T02:18:25.311Z,25.40
2022-10-21T02:20:35.001Z,25.40
2022-10-21T02:22:46.335Z,25.40
2022-10-21T02:24:56.736Z,25.50
2022-10-21T02:27:04.021Z,25.50
2022-10-21T02:29:11.149Z,25.50
2022-10-21T02:31:38.556Z,25.60
2022-10-21T02:33:54.900Z,25.60
2022-10-21T02:36:09.817Z,25.70
2022-10-21T02:38:23.870Z,25.80
2022-10-21T02:40:35.340Z,25.80
2022-10-21T02:42:43.443Z,25.90
2022-10-21T02:44:50.113Z,26.00
2022-10-21T02:46:56.831Z,26.00
2022-10-21T02:49:05.344Z,26.10
2022-10-21T02:51:12.887Z,26.10
2022-10-21T02:53:20.069Z,26.20
2022-10-21T02:55:27.352Z,26.20
2022-10-21T02:57:34.124Z,26.30
2022-10-21T02:59:43.253Z,26.40
2022-10-21T03:01:50.126Z,26.40
2022-10-21T03:03:57.561Z,26.50
2022-10-21T03:06:05.975Z,26.50
2022-10-21T03:08:12.900Z,26.60
2022-10-21T03:10:20.185Z,26.60
2022-10-21T03:12:27.107Z,26.70
2022-10-21T03:14:33.939Z,26.80
2022-10-21T03:16:40.803Z,26.80
2022-10-21T03:18:47.938Z,26.90
2022-10-21T03:20:55.014Z,27.00
2022-10-21T03:23:03.785Z,27.00
2022-10-21T03:25:11.479Z,27.10
2022-10-21T03:27:18.342Z,27.20
2022-10-21T03:29:25.127Z,27.20
2022-10-21T03:31:31.999Z,27.20
2022-10-21T03:33:38.884Z,27.20
2022-10-21T03:35:45.696Z,27.30
2022-10-21T03:37:52.925Z,27.40
2022-10-21T03:40:01.341Z,27.50
2022-10-21T03:42:08.221Z,27.50
2022-10-21T03:44:15.192Z,27.60
2022-10-21T03:46:22.169Z,27.70
2022-10-21T03:48:29.400Z,27.70
2022-10-21T03:50:36.122Z,27.80
2022-10-21T03:52:43.002Z,27.80
2022-10-21T03:54:49.817Z,27.90
2022-10-21T03:56:59.049Z,27.90
2022-10-21T03:59:06.385Z,27.90
2022-10-21T04:01:15.794Z,28.00
2022-10-21T04:03:22.860Z,28.10
2022-10-21T04:05:29.772Z,28.10
2022-10-21T04:07:36.547Z,28.10
2022-10-21T04:09:43.829Z,28.20
2022-10-21T04:11:50.909Z,28.30
2022-10-21T04:13:59.628Z,28.30
2022-10-21T04:16:08.802Z,28.40
2022-10-21T04:18:16.036Z,28.50
2022-10-21T04:20:22.961Z,28.40
2022-10-21T04:22:30.450Z,28.50
2022-10-21T04:24:37.221Z,28.50
2022-10-21T04:26:44.609Z,28.50
2022-10-21T04:28:51.380Z,28.50
2022-10-21T04:30:59.877Z,28.60
2022-10-21T04:33:06.563Z,28.50
2022-10-21T04:35:13.696Z,28.50
2022-10-21T04:37:20.517Z,28.60
2022-10-21T04:39:27.237Z,28.60
2022-10-21T04:41:34.060Z,28.70
2022-10-21T04:43:41.344Z,28.80
2022-10-21T04:45:48.116Z,28.80
2022-10-21T04:47:56.734Z,28.90
2022-10-21T04:50:03.504Z,28.90
2022-10-21T04:52:10.380Z,29.00
2022-10-21T04:54:17.252Z,28.90
2022-10-21T04:56:24.128Z,29.00
2022-10-21T04:58:31.005Z,29.00
2022-10-21T05:00:37.885Z,29.10
2022-10-21T05:02:44.601Z,29.20
2022-10-21T05:04:53.213Z,29.30
2022-10-21T05:06:59.983Z,29.30
2022-10-21T05:09:07.589Z,29.30
2022-10-21T05:11:14.456Z,29.20
2022-10-21T05:13:21.323Z,29.30
2022-10-21T05:15:28.402Z,29.30
2022-10-21T05:17:37.493Z,29.40
2022-10-21T05:19:44.511Z,29.50
2022-10-21T05:21:52.917Z,29.50
2022-10-21T05:23:59.793Z,29.50
2022-10-21T05:26:06.665Z,29.50
2022-10-21T05:28:13.592Z,29.60
2022-10-21T05:30:20.518Z,29.70
2022-10-21T05:32:27.481Z,29.70
2022-10-21T05:34:34.215Z,29.80
2022-10-21T05:36:41.039Z,29.90
2022-10-21T05:38:49.500Z,29.90
2022-10-21T05:40:56.220Z,29.90
2022-10-21T05:43:03.040Z,30.00
2022-10-21T05:45:11.249Z,30.10
2022-10-21T05:47:18.176Z,30.10
2022-10-21T05:49:25.055Z,30.00
2022-10-21T05:51:31.872Z,29.90
2022-10-21T05:53:40.846Z,29.80
2022-10-21T05:55:57.246Z,29.80
2022-10-21T05:58:04.273Z,29.80
2022-10-21T06:00:12.223Z,29.90
2022-10-21T06:02:20.122Z,30.00
2022-10-21T06:04:26.996Z,30.00
2022-10-21T06:06:33.871Z,30.10
2022-10-21T06:08:42.069Z,30.10
2022-10-21T06:10:50.885Z,30.10
2022-10-21T06:12:57.727Z,30.00
2022-10-21T06:15:04.752Z,30.00
2022-10-21T06:17:11.571Z,30.00
2022-10-21T06:19:18.495Z,30.00
2022-10-21T06:21:25.320Z,29.90
2022-10-21T06:23:32.551Z,30.00
2022-10-21T06:25:39.487Z,30.00
2022-10-21T06:27:47.940Z,30.10
2022-10-21T06:29:55.839Z,30.20
2022-10-21T06:32:02.713Z,30.30
2022-10-21T06:34:09.686Z,30.30
2022-10-21T06:36:16.515Z,30.40
2022-10-21T06:38:23.748Z,30.40
2022-10-21T06:40:30.569Z,30.50
2022-10-21T06:42:39.698Z,30.60
2022-10-21T06:44:48.159Z,30.50
2022-10-21T06:46:55.289Z,30.40
2022-10-21T06:49:02.041Z,30.30
2022-10-21T06:51:10.778Z,30.30
2022-10-21T06:53:17.805Z,30.30
2022-10-21T06:55:24.836Z,30.20
2022-10-21T06:57:31.758Z,30.10
2022-10-21T06:59:38.583Z,30.10
2022-10-21T07:01:59.852Z,30.10
2022-10-21T07:04:07.229Z,30.20
2022-10-21T07:06:14.309Z,30.10
2022-10-21T07:08:22.543Z,30.10
2022-10-21T07:10:43.471Z,30.20
2022-10-21T07:12:50.189Z,30.20
2022-10-21T07:14:57.425Z,30.30
2022-10-21T07:17:05.942Z,30.30
2022-10-21T07:19:14.351Z,30.30
2022-10-21T07:21:23.067Z,30.20
2022-10-21T07:23:29.889Z,30.00
2022-10-21T07:25:36.662Z,30.00
2022-10-21T07:27:46.161Z,30.00
2022-10-21T07:29:54.351Z,30.10
2022-10-21T07:32:01.685Z,30.10
2022-10-21T07:34:11.685Z,30.20
2022-10-21T07:36:20.402Z,30.30
2022-10-21T07:38:27.076Z,30.40
2022-10-21T07:40:34.663Z,30.50
2022-10-21T07:42:41.485Z,30.50
2022-10-21T07:44:48.617Z,30.50
2022-10-21T07:46:56.413Z,30.60
2022-10-21T07:49:03.234Z,30.60
2022-10-21T07:51:14.360Z,30.50
2022-10-21T07:53:22.669Z,30.40
2022-10-21T07:55:29.644Z,30.40
2022-10-21T07:57:36.875Z,30.50
2022-10-21T07:59:43.806Z,30.60
2022-10-21T08:01:51.198Z,30.70
2022-10-21T08:03:59.239Z,30.70
2022-10-21T08:06:06.884Z,30.70
2022-10-21T08:08:15.406Z,30.60
2022-10-21T08:10:23.244Z,30.50
2022-10-21T08:12:30.068Z,30.50
2022-10-21T08:14:37.810Z,30.30
2022-10-21T08:16:45.147Z,30.20
2022-10-21T08:18:52.481Z,30.10
2022-10-21T08:21:01.968Z,29.90
2022-10-21T08:23:08.944Z,29.80
2022-10-21T08:25:18.178Z,29.70
2022-10-21T08:27:25.303Z,29.70
2022-10-21T08:29:34.276Z,29.80
2022-10-21T08:31:43.700Z,29.90
2022-10-21T08:33:51.715Z,29.90
2022-10-21T08:35:58.592Z,29.90
2022-10-21T08:40:19.565Z,30.00
2022-10-21T08:42:27.863Z,30.00
2022-10-21T08:44:42.008Z,30.10
2022-10-21T08:46:54.844Z,30.10
2022-10-21T08:49:08.658Z,30.10
2022-10-21T08:51:26.032Z,30.10
2022-10-21T08:53:38.537Z,30.10
2022-10-21T08:55:49.046Z,30.10
2022-10-21T08:57:56.431Z,30.10
2022-10-21T09:00:03.255Z,30.10
2022-10-21T09:02:27.280Z,30.10
2022-10-21T09:04:46.289Z,29.90
2022-10-21T09:06:58.185Z,29.90
2022-10-21T09:09:18.716Z,29.80
2022-10-21T09:11:36.251Z,29.70
2022-10-21T09:13:59.049Z,29.70
2022-10-21T09:16:13.451Z,29.60
2022-10-21T09:18:36.656Z,29.60
2022-10-21T09:21:00.541Z,29.60
2022-10-21T09:23:27.279Z,29.60
2022-10-21T09:25:37.369Z,29.60
2022-10-21T09:27:55.396Z,29.50
2022-10-21T09:30:05.723Z,29.40
2022-10-21T09:32:20.211Z,29.40
2022-10-21T09:34:40.359Z,29.30
2022-10-21T09:36:49.937Z,29.30
2022-10-21T09:39:01.453Z,29.30
2022-10-21T09:41:10.507Z,29.30
2022-10-21T09:43:27.917Z,29.30
2022-10-21T09:45:37.353Z,29.30
2022-10-21T09:47:44.688Z,29.30
2022-10-21T09:50:06.785Z,29.30
2022-10-21T09:52:16.407Z,29.30
2022-10-21T09:54:26.506Z,29.30
2022-10-21T09:56:39.335Z,29.20
2022-10-21T09:58:59.661Z,29.20
2022-10-21T10:01:08.379Z,29.10
2022-10-21T10:03:15.416Z,29.00
2022-10-21T10:05:39.439Z,28.90
2022-10-21T10:07:46.411Z,28.90
2022-10-21T10:09:53.183Z,28.80
2022-10-21T10:12:03.949Z,28.80
2022-10-21T10:14:30.738Z,28.80
2022-10-21T10:16:37.817Z,28.70
2022-10-21T10:18:45.359Z,28.70
2022-10-21T10:21:08.719Z,28.60
2022-10-21T10:23:22.044Z,28.60
2022-10-21T10:25:36.804Z,28.50
2022-10-21T10:27:51.357Z,28.50
2022-10-21T10:30:01.630Z,28.40
2022-10-21T10:32:17.599Z,28.40
2022-10-21T10:34:25.807Z,28.40
2022-10-21T10:36:37.412Z,28.30
2022-10-21T10:38:47.491Z,28.20
2022-10-21T10:40:57.836Z,28.10
2022-10-21T10:43:10.713Z,28.10
2022-10-21T10:45:20.711Z,28.00
2022-10-21T10:47:32.194Z,28.00
2022-10-21T10:49:41.832Z,27.90
2022-10-21T10:51:51.370Z,27.90
2022-10-21T10:54:20.364Z,27.90
2022-10-21T10:56:32.459Z,27.80
2022-10-21T10:58:43.327Z,27.80
2022-10-21T11:00:55.239Z,27.80
2022-10-21T11:03:07.319Z,27.70
2022-10-21T11:05:26.684Z,27.70
2022-10-21T11:07:40.868Z,27.60
2022-10-21T11:09:48.624Z,27.50
2022-10-21T11:11:57.391Z,27.50
2022-10-21T11:14:04.436Z,27.40
2022-10-21T11:16:29.477Z,27.40
2022-10-21T11:18:40.800Z,27.40
2022-10-21T11:20:55.459Z,27.30
2022-10-21T11:23:17.286Z,27.30
2022-10-21T11:25:26.819Z,27.30
2022-10-21T11:27:50.590Z,27.30
2022-10-21T11:30:05.928Z,27.30
2022-10-21T11:32:27.891Z,27.30
2022-10-21T11:34:38.350Z,27.30
2022-10-21T11:36:57.209Z,27.30
2022-10-21T11:39:32.034Z,27.30
2022-10-21T11:41:43.005Z,27.30
2022-10-21T11:43:57.710Z,27.30
2022-10-21T11:46:10.579Z,27.20
2022-10-21T11:48:29.740Z,27.20
2022-10-21T11:50:43.783Z,27.10
2022-10-21T11:53:15.335Z,27.10
2022-10-21T11:55:39.772Z,27.00
2022-10-21T11:57:56.833Z,27.00
2022-10-21T12:00:13.713Z,26.90
2022-10-21T12:02:24.399Z,26.90
2022-10-21T12:04:44.133Z,26.80
2022-10-21T12:06:59.557Z,26.80
2022-10-21T12:09:09.095Z,26.80
2022-10-21T12:11:20.680Z,26.80
2022-10-21T12:13:32.210Z,26.70
2022-10-21T12:15:44.109Z,26.70
2022-10-21T12:17:52.980Z,26.70
2022-10-21T12:20:03.640Z,26.70
2022-10-21T12:22:13.852Z,26.70
2022-10-21T12:24:31.315Z,26.70
2022-10-21T12:26:43.839Z,26.60
2022-10-21T12:28:58.685Z,26.60
2022-10-21T12:31:14.311Z,26.60
2022-10-21T12:33:28.816Z,26.60
2022-10-21T12:35:54.225Z,26.50
2022-10-21T12:38:25.789Z,26.50
2022-10-21T12:40:41.318Z,26.50
2022-10-21T12:42:51.321Z,26.40
2022-10-21T12:44:58.180Z,26.40
2022-10-21T12:47:07.817Z,26.30
2022-10-21T12:49:34.153Z,26.30
2022-10-21T12:51:50.505Z,26.30
2022-10-21T12:54:01.933Z,26.30
2022-10-21T12:56:10.281Z,26.30
2022-10-21T12:58:35.235Z,26.30
2022-10-21T13:00:57.172Z,26.30
2022-10-21T13:03:05.469Z,26.30
2022-10-21T13:05:12.865Z,26.20
2022-10-21T13:08:08.145Z,26.20
2022-10-21T13:10:35.397Z,26.10
2022-10-21T13:12:42.248Z,26.00
2022-10-21T13:14:51.071Z,26.00
2022-10-21T13:17:16.662Z,26.00
2022-10-21T13:19:38.914Z,26.00
2022-10-21T13:21:48.237Z,26.00
2022-10-21T13:23:59.370Z,26.00
2022-10-21T13:26:28.046Z,26.10
2022-10-21T13:28:35.131Z,26.00
2022-10-21T13:30:44.604Z,26.00
2022-10-21T13:33:04.150Z,26.00
2022-10-21T13:35:32.884Z,26.00
2022-10-21T13:37:42.429Z,26.10
2022-10-21T13:39:54.862Z,26.10
2022-10-21T13:42:05.935Z,26.00
2022-10-21T13:44:28.835Z,26.00
2022-10-21T13:46:43.270Z,26.00
2022-10-21T13:48:51.646Z,26.00
2022-10-21T13:50:58.726Z,26.10
2022-10-21T13:53:24.545Z,26.00
2022-10-21T13:55:33.517Z,26.00
2022-10-21T13:57:40.551Z,26.00
2022-10-21T13:59:47.931Z,26.00
2022-10-21T14:01:56.495Z,26.00
2022-10-21T14:04:17.604Z,26.00
2022-10-21T14:06:33.139Z,26.00
2022-10-21T14:08:45.879Z,26.00
2022-10-21T14:10:54.562Z,26.00
2022-10-21T14:13:03.175Z,26.00
2022-10-21T14:15:19.114Z,26.00
2022-10-21T14:17:28.496Z,26.00
2022-10-21T14:19:37.724Z,26.00
2022-10-21T14:21:49.104Z,26.00
2022-10-21T14:23:56.392Z,26.00
2022-10-21T14:26:10.328Z,26.00
2022-10-21T14:28:20.786Z,26.00
2022-10-21T14:30:31.091Z,26.00
2022-10-21T14:32:38.759Z,26.00
2022-10-21T14:35:01.814Z,26.00
2022-10-21T14:37:21.465Z,26.00
2022-10-21T14:39:28.235Z,26.10
2022-10-21T14:41:39.977Z,26.10
2022-10-21T14:43:48.330Z,26.10
2022-10-21T14:45:56.384Z,26.10
2022-10-21T14:48:11.450Z,26.10
2022-10-21T14:50:23.499Z,26.10
2022-10-21T14:52:36.663Z,26.10
2022-10-21T14:54:49.126Z,26.10
2022-10-21T14:56:58.966Z,26.20
2022-10-21T14:59:19.116Z,26.10
2022-10-21T15:01:26.234Z,26.10
2022-10-21T15:03:44.989Z,26.10
2022-10-21T15:05:51.812Z,26.10
2022-10-21T15:08:27.461Z,26.10
2022-10-21T15:10:34.437Z,26.10
2022-10-21T15:12:46.535Z,26.10
2022-10-21T15:14:53.356Z,26.10
2022-10-21T15:17:02.981Z,26.10
2022-10-21T15:19:19.187Z,26.10
2022-10-21T15:21:39.272Z,26.00
2022-10-21T15:23:52.968Z,26.00
2022-10-21T15:26:04.646Z,26.00
2022-10-21T15:28:19.863Z,26.00
2022-10-21T15:30:27.303Z,26.00
2022-10-21T15:32:33.972Z,26.00
2022-10-21T15:34:41.317Z,26.00
2022-10-21T15:36:48.144Z,25.90
2022-10-21T15:38:56.418Z,25.90
2022-10-21T15:41:03.215Z,25.90
2022-10-21T15:43:12.543Z,25.90
2022-10-21T15:45:23.228Z,25.90
2022-10-21T15:47:30.033Z,25.90
2022-10-21T15:49:39.052Z,25.90
2022-10-21T15:51:46.336Z,25.90
2022-10-21T15:53:53.163Z,25.90
2022-10-21T15:56:00.047Z,25.90
2022-10-21T15:58:07.062Z,25.90
2022-10-21T16:00:21.925Z,25.80
2022-10-21T16:02:29.003Z,25.80
2022-10-21T16:04:35.828Z,25.80
2022-10-21T16:06:46.951Z,25.80
2022-10-21T16:08:54.486Z,25.80
2022-10-21T16:11:01.499Z,25.90
2022-10-21T16:13:08.392Z,25.80
2022-10-21T16:15:15.996Z,25.80
2022-10-21T16:17:25.267Z,25.80
2022-10-21T16:19:32.293Z,25.70
2022-10-21T16:21:39.425Z,25.70
2022-10-21T16:23:46.246Z,25.60
2022-10-21T16:25:53.891Z,25.60
2022-10-21T16:28:00.664Z,25.60
2022-10-21T16:30:20.848Z,25.50
2022-10-21T16:32:29.477Z,25.40
2022-10-21T16:34:36.797Z,25.40
2022-10-21T16:36:43.570Z,25.30
2022-10-21T16:38:51.777Z,25.30
2022-10-21T16:40:58.548Z,25.30
2022-10-21T16:43:05.933Z,25.30
2022-10-21T16:45:13.372Z,25.30
2022-10-21T16:47:23.533Z,25.30
2022-10-21T16:49:32.143Z,25.30
2022-10-21T16:51:39.525Z,25.30
2022-10-21T16:53:46.686Z,25.30
2022-10-21T16:55:53.940Z,25.30
2022-10-21T16:58:01.538Z,25.20
2022-10-21T17:00:09.156Z,25.20
2022-10-21T17:02:20.348Z,25.20
2022-10-21T17:04:27.121Z,25.20
2022-10-21T17:06:35.887Z,25.20
2022-10-21T17:08:42.705Z,25.20
2022-10-21T17:10:49.895Z,25.20
2022-10-21T17:12:59.739Z,25.20
2022-10-21T17:15:07.029Z,25.20
2022-10-21T17:17:13.845Z,25.10
2022-10-21T17:19:21.234Z,25.10
2022-10-21T17:21:29.795Z,25.00
2022-10-21T17:25:50.252Z,24.90
2022-10-21T17:27:57.704Z,24.90
2022-10-21T17:30:04.464Z,24.90
2022-10-21T17:32:13.392Z,24.90
2022-10-21T17:34:28.861Z,24.80
2022-10-21T17:36:35.784Z,24.80
2022-10-21T17:38:44.657Z,24.80
2022-10-21T17:40:51.562Z,24.80
2022-10-21T17:42:59.377Z,24.80
2022-10-21T17:45:06.269Z,24.80
2022-10-21T17:47:14.879Z,24.80
2022-10-21T17:49:22.150Z,24.80
2022-10-21T17:51:29.435Z,24.80
2022-10-21T17:53:36.258Z,24.80
2022-10-21T17:55:45.284Z,24.80
2022-10-21T17:57:52.064Z,24.80
2022-10-21T17:59:59.111Z,24.80
2022-10-21T18:02:05.909Z,24.80
2022-10-21T18:04:14.163Z,24.80
2022-10-21T18:06:21.088Z,24.80
2022-10-21T18:08:28.015Z,24.80
2022-10-21T18:10:34.736Z,24.80
2022-10-21T18:12:43.452Z,24.90
2022-10-21T18:14:50.389Z,24.90
2022-10-21T18:16:57.253Z,24.90
2022-10-21T18:19:04.090Z,24.90
2022-10-21T18:21:13.766Z,24.90
2022-10-21T18:23:20.549Z,24.90
2022-10-21T18:25:27.413Z,24.90
2022-10-21T18:27:34.218Z,24.90
2022-10-21T18:29:43.211Z,24.80
2022-10-21T18:31:49.981Z,24.80
2022-10-21T18:33:58.701Z,24.70
2022-10-21T18:36:11.668Z,24.70
2022-10-21T18:38:18.696Z,24.70
2022-10-21T18:40:25.415Z,24.70
2022-10-21T18:42:32.452Z,24.70
2022-10-21T18:44:39.278Z,24.70
2022-10-21T18:46:50.176Z,24.60
2022-10-21T18:48:59.433Z,24.60
2022-10-21T18:51:09.723Z,24.60
2022-10-21T18:53:16.645Z,24.50
2022-10-21T18:55:23.572Z,24.50
2022-10-21T18:57:30.755Z,24.50
2022-10-21T18:59:37.577Z,24.50
2022-10-21T19:01:44.433Z,24.60
2022-10-21T19:03:55.013Z,24.60
2022-10-21T19:06:16.847Z,24.60
2022-10-21T19:08:23.711Z,24.60
2022-10-21T19:10:30.590Z,24.60
2022-10-21T19:12:37.717Z,24.70
2022-10-21T19:14:44.662Z,24.70
2022-10-21T19:16:53.265Z,24.70
2022-10-21T19:19:01.820Z,24.70
2022-10-21T19:21:09.175Z,24.80
2022-10-21T19:23:15.929Z,24.80
2022-10-21T19:25:23.019Z,24.70
2022-10-21T19:27:29.830Z,24.70
2022-10-21T19:29:36.927Z,24.80
2022-10-21T19:31:44.103Z,24.80
2022-10-21T19:33:51.481Z,24.80
2022-10-21T19:36:02.971Z,24.80
2022-10-21T19:38:11.629Z,24.80
2022-10-21T19:40:22.497Z,24.80
2022-10-21T19:42:29.727Z,24.80
2022-10-21T19:44:36.397Z,24.80
2022-10-21T19:46:43.682Z,24.70
2022-10-21T19:48:50.967Z,24.70
2022-10-21T19:51:00.771Z,24.70
2022-10-21T19:53:07.535Z,24.70
2022-10-21T19:55:14.509Z,24.60
2022-10-21T19:57:21.392Z,24.60
2022-10-21T19:59:28.195Z,24.50
2022-10-21T20:01:36.476Z,24.50
2022-10-21T20:03:45.128Z,24.50
2022-10-21T20:05:52.208Z,24.50
2022-10-21T20:08:00.672Z,24.50
2022-10-21T20:10:08.730Z,24.50
2022-10-21T20:12:15.649Z,24.50
2022-10-21T20:14:22.674Z,24.50
2022-10-21T20:16:31.186Z,24.60
2022-10-21T20:18:38.321Z,24.50
2022-10-21T20:20:45.550Z,24.60
2022-10-21T20:22:52.439Z,24.60
2022-10-21T20:25:00.990Z,24.60
2022-10-21T20:27:07.917Z,24.60
2022-10-21T20:29:16.473Z,24.60
2022-10-21T20:31:23.765Z,24.60
2022-10-21T20:33:30.843Z,24.60
2022-10-21T20:35:43.659Z,24.60
2022-10-21T20:37:50.532Z,24.60
2022-10-21T20:39:57.355Z,24.60
2022-10-21T20:42:05.919Z,24.60
2022-10-21T20:44:17.147Z,24.60
2022-10-21T20:46:26.075Z,24.50
2022-10-21T20:48:33.507Z,24.50
2022-10-21T20:50:40.277Z,24.50
2022-10-21T20:52:47.561Z,24.50
2022-10-21T20:54:57.200Z,24.50
2022-10-21T20:57:06.684Z,24.40
2022-10-21T20:59:16.177Z,24.40
2022-10-21T21:01:26.282Z,24.40
2022-10-21T21:03:33.156Z,24.40
2022-10-21T21:05:40.073Z,24.40
2022-10-21T21:07:46.945Z,24.40
2022-10-21T21:10:09.197Z,24.40
2022-10-21T21:12:17.900Z,24.40
2022-10-21T21:14:24.988Z,24.30
2022-10-21T21:16:31.956Z,24.30
2022-10-21T21:18:39.545Z,24.30
2022-10-21T21:20:46.524Z,24.40
2022-10-21T21:22:53.753Z,24.40
2022-10-21T21:25:00.886Z,24.40
2022-10-21T21:27:07.760Z,24.40
2022-10-21T21:29:17.551Z,24.40
2022-10-21T21:31:26.220Z,24.40
2022-10-21T21:33:33.301Z,24.40
2022-10-21T21:35:40.072Z,24.40
2022-10-21T21:37:47.150Z,24.40
2022-10-21T21:39:54.024Z,24.40
2022-10-21T21:42:01.271Z,24.40
2022-10-21T21:44:08.754Z,24.40
2022-10-21T21:46:23.606Z,24.40
2022-10-21T21:48:30.670Z,24.40
2022-10-21T21:50:37.613Z,24.40
2022-10-21T21:52:44.888Z,24.40
2022-10-21T21:54:55.457Z,24.40
2022-10-21T21:57:28.659Z,24.40
2022-10-21T21:59:29.325Z,24.40
2022-10-21T22:01:37.929Z,24.40
2022-10-21T22:03:45.020Z,24.40
2022-10-21T22:05:51.845Z,24.30
2022-10-21T22:07:58.669Z,24.20
2022-10-21T22:10:05.798Z,24.20
2022-10-21T22:12:14.478Z,24.30
2022-10-21T22:14:21.850Z,24.30
2022-10-21T22:16:31.058Z,24.30
2022-10-21T22:18:39.592Z,24.30
2022-10-21T22:20:46.363Z,24.30
2022-10-21T22:22:53.681Z,24.20
2022-10-21T22:25:00.523Z,24.20
2022-10-21T22:27:07.859Z,24.20
2022-10-21T22:29:14.682Z,24.20
2022-10-21T22:31:27.423Z,24.20
2022-10-21T22:33:40.175Z,24.30
2022-10-21T22:35:47.028Z,24.30
2022-10-21T22:37:53.852Z,24.40
2022-10-21T22:40:01.196Z,24.40
2022-10-21T22:42:08.174Z,24.40
2022-10-21T22:44:15.602Z,24.50
2022-10-21T22:46:33.242Z,24.50
2022-10-21T22:48:42.692Z,24.50
2022-10-21T22:50:49.850Z,24.50
2022-10-21T22:52:56.704Z,24.50
2022-10-21T22:55:03.801Z,24.40
2022-10-21T22:57:10.570Z,24.40
2022-10-21T22:59:17.700Z,24.40
2022-10-21T23:01:25.036Z,24.40
2022-10-21T23:03:32.228Z,24.40
2022-10-21T23:05:40.739Z,24.40
2022-10-21T23:07:47.912Z,24.40
2022-10-21T23:09:56.856Z,24.40
2022-10-21T23:12:04.067Z,24.40
2022-10-21T23:14:11.608Z,24.40
2022-10-21T23:16:18.758Z,24.40
2022-10-21T23:18:25.510Z,24.50
2022-10-21T23:20:32.692Z,24.50
2022-10-21T23:22:41.369Z,24.40
2022-10-21T23:24:48.693Z,24.40
2022-10-21T23:26:59.045Z,24.40
2022-10-21T23:29:08.548Z,24.40
2022-10-21T23:31:15.256Z,24.40
2022-10-21T23:33:22.283Z,24.40
2022-10-21T23:35:29.064Z,24.40
2022-10-21T23:37:36.083Z,24.40
2022-10-21T23:39:44.648Z,24.40
2022-10-21T23:41:51.943Z,24.50
2022-10-21T23:43:58.805Z,24.50
2022-10-21T23:46:07.831Z,24.50
2022-10-21T23:48:14.770Z,24.50
2022-10-21T23:50:22.040Z,24.50
2022-10-21T23:52:29.018Z,24.50
2022-10-21T23:54:35.890Z,24.50
2022-10-21T23:56:44.358Z,24.50
2022-10-21T23:58:51.279Z,24.50
